sensor_id;sensor_type;location;lat;lon;timestamp;P1;durP1;ratioP1;P2;durP2;ratioP2
8654;SDS011;13500;52.514;13.462;2023-06-14T00:06:18;3.73;;;2.70;;
8654;SDS011;13500;52.514;13.462;2023-06-14T00:08:46;2.93;;;2.40;;
8654;SDS011;13500;52.514;13.462;2023-06-14T00:11:14;4.90;;;2.70;;
8654;SDS011;13500;52.514;13.462;2023-06-14T00:13:42;7.07;;;2.97;;
8654;SDS011;13500;52.514;13.462;2023-06-14T00:16:12;4.03;;;2.80;;
8654;SDS011;13500;52.514;13.462;2023-06-14T00:18:40;3.67;;;2.87;;
8654;SDS011;13500;52.514;13.462;2023-06-14T00:21:08;6.97;;;3.20;;
8654;SDS011;13500;52.514;13.462;2023-06-14T00:23:37;5.53;;;3.20;;
8654;SDS011;13500;52.514;13.462;2023-06-14T00:26:06;3.17;;;2.80;;
8654;SDS011;13500;52.514;13.462;2023-06-14T00:28:34;5.47;;;3.37;;
8654;SDS011;13500;52.514;13.462;2023-06-14T00:31:05;7.77;;;3.10;;
8654;SDS011;13500;52.514;13.462;2023-06-14T00:33:33;4.50;;;2.80;;
8654;SDS011;13500;52.514;13.462;2023-06-14T00:36:02;5.13;;;2.97;;
8654;SDS011;13500;52.514;13.462;2023-06-14T00:38:31;4.33;;;2.80;;
8654;SDS011;13500;52.514;13.462;2023-06-14T00:41:00;5.40;;;3.00;;
8654;SDS011;13500;52.514;13.462;2023-06-14T00:43:28;6.10;;;3.20;;
8654;SDS011;13500;52.514;13.462;2023-06-14T00:45:56;3.30;;;2.73;;
8654;SDS011;13500;52.514;13.462;2023-06-14T00:48:24;4.87;;;3.00;;
8654;SDS011;13500;52.514;13.462;2023-06-14T00:50:52;6.00;;;3.27;;
8654;SDS011;13500;52.514;13.462;2023-06-14T00:53:20;3.50;;;3.00;;
8654;SDS011;13500;52.514;13.462;2023-06-14T00:55:51;4.27;;;2.70;;
8654;SDS011;13500;52.514;13.462;2023-06-14T00:58:21;4.53;;;3.20;;
8654;SDS011;13500;52.514;13.462;2023-06-14T01:00:49;4.60;;;3.03;;
8654;SDS011;13500;52.514;13.462;2023-06-14T01:03:17;6.73;;;3.30;;
8654;SDS011;13500;52.514;13.462;2023-06-14T01:05:49;4.97;;;3.33;;
8654;SDS011;13500;52.514;13.462;2023-06-14T01:08:22;3.77;;;3.23;;
8654;SDS011;13500;52.514;13.462;2023-06-14T01:10:54;3.40;;;3.10;;
8654;SDS011;13500;52.514;13.462;2023-06-14T01:13:28;5.60;;;3.40;;
8654;SDS011;13500;52.514;13.462;2023-06-14T01:15:59;5.07;;;3.50;;
8654;SDS011;13500;52.514;13.462;2023-06-14T01:18:29;6.90;;;3.60;;
8654;SDS011;13500;52.514;13.462;2023-06-14T01:21:01;7.63;;;3.43;;
8654;SDS011;13500;52.514;13.462;2023-06-14T01:23:33;3.63;;;3.33;;
8654;SDS011;13500;52.514;13.462;2023-06-14T01:26:01;5.53;;;3.80;;
8654;SDS011;13500;52.514;13.462;2023-06-14T01:28:31;5.70;;;3.50;;
8654;SDS011;13500;52.514;13.462;2023-06-14T01:31:01;3.53;;;3.23;;
8654;SDS011;13500;52.514;13.462;2023-06-14T01:33:32;3.57;;;3.20;;
8654;SDS011;13500;52.514;13.462;2023-06-14T01:36:01;5.00;;;3.40;;
8654;SDS011;13500;52.514;13.462;2023-06-14T01:38:30;8.23;;;3.77;;
8654;SDS011;13500;52.514;13.462;2023-06-14T01:40:59;4.60;;;3.60;;
8654;SDS011;13500;52.514;13.462;2023-06-14T01:43:28;5.60;;;4.13;;
8654;SDS011;13500;52.514;13.462;2023-06-14T01:45:57;4.57;;;3.93;;
8654;SDS011;13500;52.514;13.462;2023-06-14T01:48:26;5.80;;;3.83;;
8654;SDS011;13500;52.514;13.462;2023-06-14T01:50:54;6.67;;;4.03;;
8654;SDS011;13500;52.514;13.462;2023-06-14T01:53:22;4.23;;;3.83;;
8654;SDS011;13500;52.514;13.462;2023-06-14T01:55:50;5.00;;;3.43;;
8654;SDS011;13500;52.514;13.462;2023-06-14T01:58:22;7.00;;;4.27;;
8654;SDS011;13500;52.514;13.462;2023-06-14T02:00:51;6.00;;;4.50;;
8654;SDS011;13500;52.514;13.462;2023-06-14T02:03:21;5.40;;;4.13;;
8654;SDS011;13500;52.514;13.462;2023-06-14T02:05:51;6.57;;;4.23;;
8654;SDS011;13500;52.514;13.462;2023-06-14T02:08:20;8.97;;;4.47;;
8654;SDS011;13500;52.514;13.462;2023-06-14T02:10:48;6.80;;;4.20;;
8654;SDS011;13500;52.514;13.462;2023-06-14T02:13:22;4.50;;;4.10;;
8654;SDS011;13500;52.514;13.462;2023-06-14T02:15:50;5.83;;;4.70;;
8654;SDS011;13500;52.514;13.462;2023-06-14T02:18:21;5.00;;;4.07;;
8654;SDS011;13500;52.514;13.462;2023-06-14T02:20:50;6.07;;;4.50;;
8654;SDS011;13500;52.514;13.462;2023-06-14T02:23:18;6.43;;;4.27;;
8654;SDS011;13500;52.514;13.462;2023-06-14T02:25:46;5.10;;;4.30;;
8654;SDS011;13500;52.514;13.462;2023-06-14T02:28:14;8.13;;;4.20;;
8654;SDS011;13500;52.514;13.462;2023-06-14T02:30:43;5.83;;;4.10;;
8654;SDS011;13500;52.514;13.462;2023-06-14T02:33:11;7.33;;;3.97;;
8654;SDS011;13500;52.514;13.462;2023-06-14T02:35:39;4.50;;;3.67;;
8654;SDS011;13500;52.514;13.462;2023-06-14T02:38:08;5.20;;;4.27;;
8654;SDS011;13500;52.514;13.462;2023-06-14T02:40:36;6.73;;;4.37;;
8654;SDS011;13500;52.514;13.462;2023-06-14T02:43:04;5.40;;;4.30;;
8654;SDS011;13500;52.514;13.462;2023-06-14T02:45:32;6.40;;;4.13;;
8654;SDS011;13500;52.514;13.462;2023-06-14T02:48:01;6.80;;;4.90;;
8654;SDS011;13500;52.514;13.462;2023-06-14T02:50:29;6.17;;;4.43;;
8654;SDS011;13500;52.514;13.462;2023-06-14T02:52:57;6.37;;;3.97;;
8654;SDS011;13500;52.514;13.462;2023-06-14T02:55:25;4.90;;;4.27;;
8654;SDS011;13500;52.514;13.462;2023-06-14T02:57:54;9.83;;;4.80;;
8654;SDS011;13500;52.514;13.462;2023-06-14T03:00:22;7.13;;;4.53;;
8654;SDS011;13500;52.514;13.462;2023-06-14T03:02:51;5.27;;;4.63;;
8654;SDS011;13500;52.514;13.462;2023-06-14T03:05:22;7.60;;;5.10;;
8654;SDS011;13500;52.514;13.462;2023-06-14T03:07:51;7.97;;;4.73;;
8654;SDS011;13500;52.514;13.462;2023-06-14T03:10:20;7.43;;;4.80;;
8654;SDS011;13500;52.514;13.462;2023-06-14T03:12:50;6.33;;;4.83;;
8654;SDS011;13500;52.514;13.462;2023-06-14T03:15:20;5.53;;;4.93;;
8654;SDS011;13500;52.514;13.462;2023-06-14T03:17:51;6.83;;;4.80;;
8654;SDS011;13500;52.514;13.462;2023-06-14T03:20:20;8.37;;;5.20;;
8654;SDS011;13500;52.514;13.462;2023-06-14T03:22:49;7.37;;;5.03;;
8654;SDS011;13500;52.514;13.462;2023-06-14T03:25:19;7.90;;;5.20;;
8654;SDS011;13500;52.514;13.462;2023-06-14T03:27:49;5.50;;;5.00;;
8654;SDS011;13500;52.514;13.462;2023-06-14T03:30:18;6.33;;;4.43;;
8654;SDS011;13500;52.514;13.462;2023-06-14T03:32:48;7.43;;;4.73;;
8654;SDS011;13500;52.514;13.462;2023-06-14T03:35:17;5.87;;;4.70;;
8654;SDS011;13500;52.514;13.462;2023-06-14T03:37:47;5.70;;;4.70;;
8654;SDS011;13500;52.514;13.462;2023-06-14T03:40:18;6.67;;;4.80;;
8654;SDS011;13500;52.514;13.462;2023-06-14T03:42:50;7.83;;;4.80;;
8654;SDS011;13500;52.514;13.462;2023-06-14T03:45:18;5.67;;;4.90;;
8654;SDS011;13500;52.514;13.462;2023-06-14T03:47:47;5.30;;;4.80;;
8654;SDS011;13500;52.514;13.462;2023-06-14T03:50:15;8.17;;;5.03;;
8654;SDS011;13500;52.514;13.462;2023-06-14T03:52:43;6.73;;;4.80;;
8654;SDS011;13500;52.514;13.462;2023-06-14T03:55:11;8.07;;;4.77;;
8654;SDS011;13500;52.514;13.462;2023-06-14T03:57:45;8.97;;;5.10;;
8654;SDS011;13500;52.514;13.462;2023-06-14T04:00:16;7.53;;;4.93;;
8654;SDS011;13500;52.514;13.462;2023-06-14T04:02:45;8.33;;;5.37;;
8654;SDS011;13500;52.514;13.462;2023-06-14T04:05:14;5.87;;;5.13;;
8654;SDS011;13500;52.514;13.462;2023-06-14T04:07:46;5.47;;;4.97;;
8654;SDS011;13500;52.514;13.462;2023-06-14T04:10:15;6.77;;;5.03;;
8654;SDS011;13500;52.514;13.462;2023-06-14T04:12:45;6.73;;;5.27;;
8654;SDS011;13500;52.514;13.462;2023-06-14T04:15:13;5.83;;;5.23;;
8654;SDS011;13500;52.514;13.462;2023-06-14T04:17:48;8.03;;;5.63;;
8654;SDS011;13500;52.514;13.462;2023-06-14T04:20:18;9.30;;;5.77;;
8654;SDS011;13500;52.514;13.462;2023-06-14T04:22:46;7.23;;;5.57;;
8654;SDS011;13500;52.514;13.462;2023-06-14T04:25:15;7.17;;;5.27;;
8654;SDS011;13500;52.514;13.462;2023-06-14T04:27:53;10.27;;;5.20;;
8654;SDS011;13500;52.514;13.462;2023-06-14T04:30:21;11.13;;;5.40;;
8654;SDS011;13500;52.514;13.462;2023-06-14T04:32:54;8.27;;;5.50;;
8654;SDS011;13500;52.514;13.462;2023-06-14T04:35:23;8.23;;;5.37;;
8654;SDS011;13500;52.514;13.462;2023-06-14T04:37:52;8.60;;;5.40;;
8654;SDS011;13500;52.514;13.462;2023-06-14T04:40:21;7.57;;;5.20;;
8654;SDS011;13500;52.514;13.462;2023-06-14T04:42:49;16.47;;;5.50;;
8654;SDS011;13500;52.514;13.462;2023-06-14T04:45:19;6.53;;;5.07;;
8654;SDS011;13500;52.514;13.462;2023-06-14T04:47:49;6.73;;;5.67;;
8654;SDS011;13500;52.514;13.462;2023-06-14T04:50:22;8.67;;;5.43;;
8654;SDS011;13500;52.514;13.462;2023-06-14T04:52:50;10.50;;;5.80;;
8654;SDS011;13500;52.514;13.462;2023-06-14T04:55:19;10.03;;;6.87;;
8654;SDS011;13500;52.514;13.462;2023-06-14T04:57:47;13.47;;;5.63;;
8654;SDS011;13500;52.514;13.462;2023-06-14T05:00:16;8.73;;;5.90;;
8654;SDS011;13500;52.514;13.462;2023-06-14T05:02:45;13.13;;;6.10;;
8654;SDS011;13500;52.514;13.462;2023-06-14T05:05:17;8.90;;;5.57;;
8654;SDS011;13500;52.514;13.462;2023-06-14T05:07:46;9.50;;;5.13;;
8654;SDS011;13500;52.514;13.462;2023-06-14T05:10:14;14.20;;;5.77;;
8654;SDS011;13500;52.514;13.462;2023-06-14T05:12:42;12.20;;;5.67;;
8654;SDS011;13500;52.514;13.462;2023-06-14T05:15:11;8.83;;;5.10;;
8654;SDS011;13500;52.514;13.462;2023-06-14T05:17:40;10.63;;;5.53;;
8654;SDS011;13500;52.514;13.462;2023-06-14T05:20:10;10.73;;;5.60;;
8654;SDS011;13500;52.514;13.462;2023-06-14T05:22:39;7.13;;;5.43;;
8654;SDS011;13500;52.514;13.462;2023-06-14T05:25:07;6.77;;;5.40;;
8654;SDS011;13500;52.514;13.462;2023-06-14T05:27:36;9.30;;;5.90;;
8654;SDS011;13500;52.514;13.462;2023-06-14T05:30:04;8.47;;;5.43;;
8654;SDS011;13500;52.514;13.462;2023-06-14T05:32:33;8.40;;;6.90;;
8654;SDS011;13500;52.514;13.462;2023-06-14T05:35:01;12.60;;;6.10;;
8654;SDS011;13500;52.514;13.462;2023-06-14T05:37:31;8.53;;;5.17;;
8654;SDS011;13500;52.514;13.462;2023-06-14T05:39:59;10.00;;;5.57;;
8654;SDS011;13500;52.514;13.462;2023-06-14T05:42:27;8.33;;;5.30;;
8654;SDS011;13500;52.514;13.462;2023-06-14T05:44:55;10.73;;;5.63;;
8654;SDS011;13500;52.514;13.462;2023-06-14T05:47:23;16.50;;;5.87;;
8654;SDS011;13500;52.514;13.462;2023-06-14T05:49:52;9.00;;;5.53;;
8654;SDS011;13500;52.514;13.462;2023-06-14T05:52:20;8.83;;;5.13;;
8654;SDS011;13500;52.514;13.462;2023-06-14T05:54:49;11.07;;;6.10;;
8654;SDS011;13500;52.514;13.462;2023-06-14T05:57:17;15.80;;;5.73;;
8654;SDS011;13500;52.514;13.462;2023-06-14T05:59:45;8.97;;;5.70;;
8654;SDS011;13500;52.514;13.462;2023-06-14T06:02:13;7.27;;;5.53;;
8654;SDS011;13500;52.514;13.462;2023-06-14T06:04:41;7.90;;;5.60;;
8654;SDS011;13500;52.514;13.462;2023-06-14T06:07:08;10.60;;;5.60;;
8654;SDS011;13500;52.514;13.462;2023-06-14T06:09:36;7.60;;;5.53;;
8654;SDS011;13500;52.514;13.462;2023-06-14T06:12:06;8.67;;;5.40;;
8654;SDS011;13500;52.514;13.462;2023-06-14T06:14:34;7.63;;;5.10;;
8654;SDS011;13500;52.514;13.462;2023-06-14T06:17:02;8.87;;;5.83;;
8654;SDS011;13500;52.514;13.462;2023-06-14T06:19:31;7.83;;;4.80;;
8654;SDS011;13500;52.514;13.462;2023-06-14T06:21:59;5.50;;;4.80;;
8654;SDS011;13500;52.514;13.462;2023-06-14T06:24:27;5.77;;;5.07;;
8654;SDS011;13500;52.514;13.462;2023-06-14T06:26:55;7.57;;;4.97;;
8654;SDS011;13500;52.514;13.462;2023-06-14T06:29:24;8.57;;;4.70;;
8654;SDS011;13500;52.514;13.462;2023-06-14T06:31:52;10.10;;;6.00;;
8654;SDS011;13500;52.514;13.462;2023-06-14T06:34:22;10.43;;;6.40;;
8654;SDS011;13500;52.514;13.462;2023-06-14T06:36:50;8.20;;;5.07;;
8654;SDS011;13500;52.514;13.462;2023-06-14T06:39:18;7.60;;;4.90;;
8654;SDS011;13500;52.514;13.462;2023-06-14T06:41:46;7.17;;;4.83;;
8654;SDS011;13500;52.514;13.462;2023-06-14T06:44:26;5.00;;;4.50;;
8654;SDS011;13500;52.514;13.462;2023-06-14T06:46:55;8.93;;;5.80;;
8654;SDS011;13500;52.514;13.462;2023-06-14T06:49:23;9.57;;;4.80;;
8654;SDS011;13500;52.514;13.462;2023-06-14T06:52:00;7.50;;;5.30;;
8654;SDS011;13500;52.514;13.462;2023-06-14T06:54:29;6.37;;;5.00;;
8654;SDS011;13500;52.514;13.462;2023-06-14T06:56:57;6.70;;;4.70;;
8654;SDS011;13500;52.514;13.462;2023-06-14T06:59:26;6.87;;;4.90;;
8654;SDS011;13500;52.514;13.462;2023-06-14T07:01:54;4.90;;;4.27;;
8654;SDS011;13500;52.514;13.462;2023-06-14T07:04:23;9.63;;;4.93;;
8654;SDS011;13500;52.514;13.462;2023-06-14T07:06:50;5.93;;;4.70;;
8654;SDS011;13500;52.514;13.462;2023-06-14T07:09:18;6.50;;;4.23;;
8654;SDS011;13500;52.514;13.462;2023-06-14T07:11:47;6.97;;;4.43;;
8654;SDS011;13500;52.514;13.462;2023-06-14T07:14:15;7.70;;;4.47;;
8654;SDS011;13500;52.514;13.462;2023-06-14T07:16:44;7.07;;;5.00;;
8654;SDS011;13500;52.514;13.462;2023-06-14T07:19:13;8.33;;;4.70;;
8654;SDS011;13500;52.514;13.462;2023-06-14T07:21:41;7.13;;;4.93;;
8654;SDS011;13500;52.514;13.462;2023-06-14T07:24:09;6.23;;;4.03;;
8654;SDS011;13500;52.514;13.462;2023-06-14T07:26:37;7.03;;;4.60;;
8654;SDS011;13500;52.514;13.462;2023-06-14T07:29:05;7.00;;;4.43;;
8654;SDS011;13500;52.514;13.462;2023-06-14T07:31:33;5.77;;;4.47;;
8654;SDS011;13500;52.514;13.462;2023-06-14T07:34:03;10.07;;;4.47;;
8654;SDS011;13500;52.514;13.462;2023-06-14T07:36:31;5.73;;;4.27;;
8654;SDS011;13500;52.514;13.462;2023-06-14T07:38:59;5.90;;;4.47;;
8654;SDS011;13500;52.514;13.462;2023-06-14T07:41:29;7.23;;;4.37;;
8654;SDS011;13500;52.514;13.462;2023-06-14T07:43:57;6.20;;;4.27;;
8654;SDS011;13500;52.514;13.462;2023-06-14T07:46:25;9.73;;;4.37;;
8654;SDS011;13500;52.514;13.462;2023-06-14T07:48:53;6.43;;;4.50;;
8654;SDS011;13500;52.514;13.462;2023-06-14T07:51:23;8.17;;;4.67;;
8654;SDS011;13500;52.514;13.462;2023-06-14T07:53:51;13.23;;;7.70;;
8654;SDS011;13500;52.514;13.462;2023-06-14T07:56:19;8.30;;;4.60;;
8654;SDS011;13500;52.514;13.462;2023-06-14T07:58:47;7.53;;;4.43;;
8654;SDS011;13500;52.514;13.462;2023-06-14T08:01:15;6.00;;;4.53;;
8654;SDS011;13500;52.514;13.462;2023-06-14T08:03:44;6.87;;;4.57;;
8654;SDS011;13500;52.514;13.462;2023-06-14T08:06:12;8.63;;;4.70;;
8654;SDS011;13500;52.514;13.462;2023-06-14T08:08:41;9.40;;;4.70;;
8654;SDS011;13500;52.514;13.462;2023-06-14T08:11:09;9.30;;;4.47;;
8654;SDS011;13500;52.514;13.462;2023-06-14T08:13:37;9.27;;;4.07;;
8654;SDS011;13500;52.514;13.462;2023-06-14T08:16:05;8.80;;;4.23;;
8654;SDS011;13500;52.514;13.462;2023-06-14T08:18:33;8.40;;;4.40;;
8654;SDS011;13500;52.514;13.462;2023-06-14T08:21:01;6.87;;;4.03;;
8654;SDS011;13500;52.514;13.462;2023-06-14T08:23:29;8.60;;;4.00;;
8654;SDS011;13500;52.514;13.462;2023-06-14T08:25:59;9.97;;;4.00;;
8654;SDS011;13500;52.514;13.462;2023-06-14T08:28:28;4.83;;;4.27;;
8654;SDS011;13500;52.514;13.462;2023-06-14T08:30:56;5.50;;;3.87;;
8654;SDS011;13500;52.514;13.462;2023-06-14T08:33:24;6.73;;;3.80;;
8654;SDS011;13500;52.514;13.462;2023-06-14T08:35:52;5.90;;;3.43;;
8654;SDS011;13500;52.514;13.462;2023-06-14T08:38:20;17.17;;;9.50;;
8654;SDS011;13500;52.514;13.462;2023-06-14T08:40:50;15.70;;;7.47;;
8654;SDS011;13500;52.514;13.462;2023-06-14T08:43:19;6.97;;;5.07;;
8654;SDS011;13500;52.514;13.462;2023-06-14T08:45:47;5.23;;;3.60;;
8654;SDS011;13500;52.514;13.462;2023-06-14T08:48:17;5.13;;;3.30;;
8654;SDS011;13500;52.514;13.462;2023-06-14T08:50:46;6.00;;;3.57;;
8654;SDS011;13500;52.514;13.462;2023-06-14T08:53:19;4.17;;;3.20;;
8654;SDS011;13500;52.514;13.462;2023-06-14T08:55:48;5.37;;;3.43;;
8654;SDS011;13500;52.514;13.462;2023-06-14T08:58:17;8.33;;;3.50;;
8654;SDS011;13500;52.514;13.462;2023-06-14T09:00:47;5.23;;;3.27;;
8654;SDS011;13500;52.514;13.462;2023-06-14T09:03:16;5.73;;;3.50;;
8654;SDS011;13500;52.514;13.462;2023-06-14T09:05:44;7.80;;;3.60;;
8654;SDS011;13500;52.514;13.462;2023-06-14T09:08:12;7.30;;;4.37;;
8654;SDS011;13500;52.514;13.462;2023-06-14T09:10:40;7.57;;;3.80;;
8654;SDS011;13500;52.514;13.462;2023-06-14T09:13:09;6.73;;;3.67;;
8654;SDS011;13500;52.514;13.462;2023-06-14T09:15:38;6.40;;;3.37;;
8654;SDS011;13500;52.514;13.462;2023-06-14T09:18:10;6.90;;;3.37;;
8654;SDS011;13500;52.514;13.462;2023-06-14T09:20:40;10.10;;;3.70;;
8654;SDS011;13500;52.514;13.462;2023-06-14T09:23:11;4.83;;;3.27;;
8654;SDS011;13500;52.514;13.462;2023-06-14T09:25:42;5.50;;;3.13;;
8654;SDS011;13500;52.514;13.462;2023-06-14T09:28:12;4.07;;;3.47;;
8654;SDS011;13500;52.514;13.462;2023-06-14T09:30:42;6.93;;;3.20;;
8654;SDS011;13500;52.514;13.462;2023-06-14T09:33:18;6.50;;;3.33;;
8654;SDS011;13500;52.514;13.462;2023-06-14T09:35:50;5.93;;;3.40;;
8654;SDS011;13500;52.514;13.462;2023-06-14T09:38:20;6.50;;;3.67;;
8654;SDS011;13500;52.514;13.462;2023-06-14T09:40:49;5.03;;;3.13;;
8654;SDS011;13500;52.514;13.462;2023-06-14T09:43:17;5.97;;;4.00;;
8654;SDS011;13500;52.514;13.462;2023-06-14T09:45:46;5.50;;;3.90;;
8654;SDS011;13500;52.514;13.462;2023-06-14T09:48:15;5.47;;;3.53;;
8654;SDS011;13500;52.514;13.462;2023-06-14T09:50:48;9.53;;;3.77;;
8654;SDS011;13500;52.514;13.462;2023-06-14T09:53:20;6.37;;;3.93;;
8654;SDS011;13500;52.514;13.462;2023-06-14T09:55:52;8.73;;;4.00;;
8654;SDS011;13500;52.514;13.462;2023-06-14T09:58:23;5.60;;;3.20;;
8654;SDS011;13500;52.514;13.462;2023-06-14T10:00:56;5.43;;;3.90;;
8654;SDS011;13500;52.514;13.462;2023-06-14T10:03:28;4.13;;;3.70;;
8654;SDS011;13500;52.514;13.462;2023-06-14T10:06:18;8.97;;;3.93;;
8654;SDS011;13500;52.514;13.462;2023-06-14T10:08:49;4.93;;;4.30;;
8654;SDS011;13500;52.514;13.462;2023-06-14T10:11:18;8.73;;;3.80;;
8654;SDS011;13500;52.514;13.462;2023-06-14T10:13:48;9.50;;;3.97;;
8654;SDS011;13500;52.514;13.462;2023-06-14T10:16:20;8.50;;;4.40;;
8654;SDS011;13500;52.514;13.462;2023-06-14T10:18:58;4.80;;;3.80;;
8654;SDS011;13500;52.514;13.462;2023-06-14T10:21:32;7.60;;;3.67;;
8654;SDS011;13500;52.514;13.462;2023-06-14T10:24:10;9.83;;;3.97;;
8654;SDS011;13500;52.514;13.462;2023-06-14T10:26:50;8.00;;;3.40;;
8654;SDS011;13500;52.514;13.462;2023-06-14T10:29:26;5.70;;;3.90;;
8654;SDS011;13500;52.514;13.462;2023-06-14T10:32:00;9.57;;;3.80;;
8654;SDS011;13500;52.514;13.462;2023-06-14T10:34:32;4.83;;;3.50;;
8654;SDS011;13500;52.514;13.462;2023-06-14T10:37:03;5.03;;;3.47;;
8654;SDS011;13500;52.514;13.462;2023-06-14T10:39:38;5.87;;;3.50;;
8654;SDS011;13500;52.514;13.462;2023-06-14T10:42:09;6.23;;;3.57;;
8654;SDS011;13500;52.514;13.462;2023-06-14T10:44:38;5.83;;;3.70;;
8654;SDS011;13500;52.514;13.462;2023-06-14T10:47:09;5.97;;;3.93;;
8654;SDS011;13500;52.514;13.462;2023-06-14T10:49:41;4.53;;;3.13;;
8654;SDS011;13500;52.514;13.462;2023-06-14T10:52:10;5.03;;;3.77;;
8654;SDS011;13500;52.514;13.462;2023-06-14T10:57:35;6.07;;;3.53;;
8654;SDS011;13500;52.514;13.462;2023-06-14T11:00:18;8.33;;;4.40;;
8654;SDS011;13500;52.514;13.462;2023-06-14T11:05:55;10.77;;;3.97;;
8654;SDS011;13500;52.514;13.462;2023-06-14T11:11:33;9.40;;;3.50;;
8654;SDS011;13500;52.514;13.462;2023-06-14T11:14:02;8.97;;;4.40;;
8654;SDS011;13500;52.514;13.462;2023-06-14T11:16:30;9.73;;;4.00;;
8654;SDS011;13500;52.514;13.462;2023-06-14T11:19:00;7.30;;;3.90;;
8654;SDS011;13500;52.514;13.462;2023-06-14T11:21:31;5.97;;;3.40;;
8654;SDS011;13500;52.514;13.462;2023-06-14T11:24:00;7.70;;;4.10;;
8654;SDS011;13500;52.514;13.462;2023-06-14T11:26:28;5.47;;;4.03;;
8654;SDS011;13500;52.514;13.462;2023-06-14T11:28:57;6.20;;;3.30;;
8654;SDS011;13500;52.514;13.462;2023-06-14T11:31:26;7.90;;;3.17;;
8654;SDS011;13500;52.514;13.462;2023-06-14T11:33:55;8.77;;;3.70;;
8654;SDS011;13500;52.514;13.462;2023-06-14T11:36:26;8.83;;;4.10;;
8654;SDS011;13500;52.514;13.462;2023-06-14T11:39:00;7.47;;;3.73;;
8654;SDS011;13500;52.514;13.462;2023-06-14T11:41:33;5.93;;;4.47;;
8654;SDS011;13500;52.514;13.462;2023-06-14T11:44:02;8.57;;;3.73;;
8654;SDS011;13500;52.514;13.462;2023-06-14T11:46:30;7.70;;;4.00;;
8654;SDS011;13500;52.514;13.462;2023-06-14T11:48:58;6.40;;;3.33;;
8654;SDS011;13500;52.514;13.462;2023-06-14T11:51:29;9.33;;;3.70;;
8654;SDS011;13500;52.514;13.462;2023-06-14T11:53:57;6.67;;;3.97;;
8654;SDS011;13500;52.514;13.462;2023-06-14T11:56:27;7.63;;;4.17;;
8654;SDS011;13500;52.514;13.462;2023-06-14T11:58:55;9.20;;;3.93;;
8654;SDS011;13500;52.514;13.462;2023-06-14T12:01:24;5.30;;;3.50;;
8654;SDS011;13500;52.514;13.462;2023-06-14T12:03:53;5.17;;;4.00;;
8654;SDS011;13500;52.514;13.462;2023-06-14T12:06:28;9.43;;;3.87;;
8654;SDS011;13500;52.514;13.462;2023-06-14T12:09:00;12.17;;;3.90;;
8654;SDS011;13500;52.514;13.462;2023-06-14T12:11:34;8.17;;;4.03;;
8654;SDS011;13500;52.514;13.462;2023-06-14T12:14:03;4.77;;;4.23;;
8654;SDS011;13500;52.514;13.462;2023-06-14T12:16:32;5.03;;;3.30;;
8654;SDS011;13500;52.514;13.462;2023-06-14T12:19:01;5.13;;;3.70;;
8654;SDS011;13500;52.514;13.462;2023-06-14T12:21:36;5.73;;;3.80;;
8654;SDS011;13500;52.514;13.462;2023-06-14T12:24:06;8.30;;;3.80;;
8654;SDS011;13500;52.514;13.462;2023-06-14T12:26:39;8.00;;;3.33;;
8654;SDS011;13500;52.514;13.462;2023-06-14T12:29:07;4.17;;;3.10;;
8654;SDS011;13500;52.514;13.462;2023-06-14T12:31:35;7.00;;;3.60;;
8654;SDS011;13500;52.514;13.462;2023-06-14T12:34:03;6.97;;;3.50;;
8654;SDS011;13500;52.514;13.462;2023-06-14T12:36:31;5.23;;;3.53;;
8654;SDS011;13500;52.514;13.462;2023-06-14T12:39:00;5.00;;;3.63;;
8654;SDS011;13500;52.514;13.462;2023-06-14T12:41:28;6.10;;;3.60;;
8654;SDS011;13500;52.514;13.462;2023-06-14T12:43:57;5.97;;;3.23;;
8654;SDS011;13500;52.514;13.462;2023-06-14T12:46:28;3.50;;;3.13;;
8654;SDS011;13500;52.514;13.462;2023-06-14T12:48:56;6.33;;;3.47;;
8654;SDS011;13500;52.514;13.462;2023-06-14T12:51:24;5.37;;;3.13;;
8654;SDS011;13500;52.514;13.462;2023-06-14T12:53:52;8.33;;;5.47;;
8654;SDS011;13500;52.514;13.462;2023-06-14T12:56:20;8.47;;;3.50;;
8654;SDS011;13500;52.514;13.462;2023-06-14T12:58:50;8.50;;;3.27;;
8654;SDS011;13500;52.514;13.462;2023-06-14T13:01:19;7.57;;;3.53;;
8654;SDS011;13500;52.514;13.462;2023-06-14T13:03:47;6.30;;;3.00;;
8654;SDS011;13500;52.514;13.462;2023-06-14T13:06:17;9.17;;;3.63;;
8654;SDS011;13500;52.514;13.462;2023-06-14T13:08:45;5.17;;;3.50;;
8654;SDS011;13500;52.514;13.462;2023-06-14T13:11:13;4.40;;;3.20;;
8654;SDS011;13500;52.514;13.462;2023-06-14T13:13:41;7.00;;;3.67;;
8654;SDS011;13500;52.514;13.462;2023-06-14T13:16:09;7.83;;;3.20;;
8654;SDS011;13500;52.514;13.462;2023-06-14T13:18:38;4.23;;;3.53;;
8654;SDS011;13500;52.514;13.462;2023-06-14T13:21:06;6.20;;;3.40;;
8654;SDS011;13500;52.514;13.462;2023-06-14T13:23:34;8.13;;;3.63;;
8654;SDS011;13500;52.514;13.462;2023-06-14T13:26:02;6.63;;;3.30;;
8654;SDS011;13500;52.514;13.462;2023-06-14T13:28:30;6.50;;;3.17;;
8654;SDS011;13500;52.514;13.462;2023-06-14T13:30:59;5.87;;;3.30;;
8654;SDS011;13500;52.514;13.462;2023-06-14T13:33:28;9.63;;;3.40;;
8654;SDS011;13500;52.514;13.462;2023-06-14T13:35:57;6.93;;;3.20;;
8654;SDS011;13500;52.514;13.462;2023-06-14T13:38:25;8.80;;;3.33;;
8654;SDS011;13500;52.514;13.462;2023-06-14T13:40:53;6.50;;;3.67;;
8654;SDS011;13500;52.514;13.462;2023-06-14T13:43:21;9.13;;;3.70;;
8654;SDS011;13500;52.514;13.462;2023-06-14T13:45:49;7.67;;;3.73;;
8654;SDS011;13500;52.514;13.462;2023-06-14T13:48:35;9.33;;;4.10;;
8654;SDS011;13500;52.514;13.462;2023-06-14T13:51:22;6.03;;;3.40;;
8654;SDS011;13500;52.514;13.462;2023-06-14T13:54:07;8.03;;;3.90;;
8654;SDS011;13500;52.514;13.462;2023-06-14T13:56:53;7.83;;;3.70;;
8654;SDS011;13500;52.514;13.462;2023-06-14T13:59:38;7.03;;;3.33;;
8654;SDS011;13500;52.514;13.462;2023-06-14T14:02:30;7.17;;;3.80;;
8654;SDS011;13500;52.514;13.462;2023-06-14T14:05:15;8.63;;;3.80;;
8654;SDS011;13500;52.514;13.462;2023-06-14T14:08:02;5.83;;;3.63;;
8654;SDS011;13500;52.514;13.462;2023-06-14T14:10:48;9.60;;;3.40;;
8654;SDS011;13500;52.514;13.462;2023-06-14T14:13:34;5.07;;;3.10;;
8654;SDS011;13500;52.514;13.462;2023-06-14T14:16:21;6.20;;;3.53;;
8654;SDS011;13500;52.514;13.462;2023-06-14T14:19:07;5.00;;;3.30;;
8654;SDS011;13500;52.514;13.462;2023-06-14T14:21:52;8.80;;;3.90;;
8654;SDS011;13500;52.514;13.462;2023-06-14T14:24:40;7.23;;;3.33;;
8654;SDS011;13500;52.514;13.462;2023-06-14T14:27:25;10.90;;;3.70;;
8654;SDS011;13500;52.514;13.462;2023-06-14T14:30:11;10.57;;;4.30;;
8654;SDS011;13500;52.514;13.462;2023-06-14T14:32:41;6.37;;;3.70;;
8654;SDS011;13500;52.514;13.462;2023-06-14T14:35:11;4.30;;;3.47;;
8654;SDS011;13500;52.514;13.462;2023-06-14T14:37:39;6.33;;;3.37;;
8654;SDS011;13500;52.514;13.462;2023-06-14T14:40:09;6.83;;;3.70;;
8654;SDS011;13500;52.514;13.462;2023-06-14T14:42:38;4.97;;;3.33;;
8654;SDS011;13500;52.514;13.462;2023-06-14T14:45:06;7.40;;;4.40;;
8654;SDS011;13500;52.514;13.462;2023-06-14T14:47:35;6.27;;;3.47;;
8654;SDS011;13500;52.514;13.462;2023-06-14T14:50:04;11.97;;;3.87;;
8654;SDS011;13500;52.514;13.462;2023-06-14T14:52:35;5.33;;;3.70;;
8654;SDS011;13500;52.514;13.462;2023-06-14T14:55:03;7.13;;;3.80;;
8654;SDS011;13500;52.514;13.462;2023-06-14T14:57:33;5.37;;;3.57;;
8654;SDS011;13500;52.514;13.462;2023-06-14T15:00:03;8.20;;;3.83;;
8654;SDS011;13500;52.514;13.462;2023-06-14T15:02:32;7.87;;;4.03;;
8654;SDS011;13500;52.514;13.462;2023-06-14T15:05:00;4.87;;;3.47;;
8654;SDS011;13500;52.514;13.462;2023-06-14T15:07:30;6.93;;;3.80;;
8654;SDS011;13500;52.514;13.462;2023-06-14T15:10:00;10.67;;;3.57;;
8654;SDS011;13500;52.514;13.462;2023-06-14T15:12:30;6.57;;;3.67;;
8654;SDS011;13500;52.514;13.462;2023-06-14T15:14:59;6.90;;;3.97;;
8654;SDS011;13500;52.514;13.462;2023-06-14T15:17:28;5.20;;;3.40;;